Aérodrome :
LOGIN :

S'inscrire | Disclaimer

   EN    FR    IT 

 










Légende :    VFR   VFR Marginal   IFR   IFR Intensif   IFR Très Intensif
Visi : 
Plafond : 
>= 8 km
>= 3000ft
5 à 8 km
1000 à 3000 ft
1500m à 5 km
500 à 1000 ft
800 à 1500m
200 à 500 ft
< 800m
< 200 ft
Symboles :   Orages  Brouillard  Fortes neiges  Fortes précipitations  Vent > 20 kt
SIGMETs :   Divers  Orages  Givrage  Turbulence  Onde Orograph.  Cendres Volcan.







- Altitude de l'aérodrome : 390 ft
- Code IATA : NQY
- Voir les cartes d'approche


EGHQ - Newquay

DERNIER METAR :
  • 230650Z 17011KT 9999 FEW025 14/14 Q1008

METARs EXPIRÉS :
  • 230620Z 16012KT 9999 FEW025 13/13 Q1008
  • 230550Z 16010KT 9999 FEW018 13/13 Q1008

TAF TAF EGHQ
Valide du 23 à 06h jusqu'au 23 à 15h UTC


230627Z 2306/2315 18015G25KT 9999 SCT020
TEMPO 2309/2314 18022G35KT 4000 RA BKN009
PROB40
TEMPO 2309/2313 +RA BKN004
PROB30
TEMPO 2314/2315 7000 SHRA BKN009
Pas de NOTAMs connus pour ce terrain.



MET'MAP, la Météo Aéronautique d'un coup d'oeil ! - Copyright ORBIFLY Décembre 2007 - Disclaimer

ORBIFLY MET'MAP TEAM :

Programmation & Développement : Alexandra Zaïnal
Conception & Développement : Baudouin d'Aumeries
Co-Programmation & Développement : Marc-Olivier Méhu
Soutien technique & logistique : Manuel Goepfert

Contact : metmap@orbifly.com




SOURCES & CREDITS :

   NOAA